sensor_id;sensor_type;location;lat;lon;timestamp;temperature;humidity
54178;DHT22;40085;53.004;6.770;2023-04-03T00:01:32;2.00;1.00
54178;DHT22;40085;53.004;6.770;2023-04-03T00:03:58;2.00;1.00
54178;DHT22;40085;53.004;6.770;2023-04-03T00:06:24;2.00;99.90
54178;DHT22;40085;53.004;6.770;2023-04-03T00:08:50;1.90;99.90
54178;DHT22;40085;53.004;6.770;2023-04-03T00:11:17;1.90;1.00
54178;DHT22;40085;53.004;6.770;2023-04-03T00:13:43;1.90;1.00
54178;DHT22;40085;53.004;6.770;2023-04-03T00:16:10;1.90;1.00
54178;DHT22;40085;53.004;6.770;2023-04-03T00:18:37;1.80;1.00
54178;DHT22;40085;53.004;6.770;2023-04-03T00:21:03;1.80;1.00
54178;DHT22;40085;53.004;6.770;2023-04-03T00:23:29;1.80;1.00
54178;DHT22;40085;53.004;6.770;2023-04-03T00:25:55;1.80;1.00
54178;DHT22;40085;53.004;6.770;2023-04-03T00:28:21;1.70;1.00
54178;DHT22;40085;53.004;6.770;2023-04-03T00:30:48;1.70;1.00
54178;DHT22;40085;53.004;6.770;2023-04-03T00:33:14;1.70;1.00
54178;DHT22;40085;53.004;6.770;2023-04-03T00:35:40;1.70;1.00
54178;DHT22;40085;53.004;6.770;2023-04-03T00:38:06;1.60;1.00
54178;DHT22;40085;53.004;6.770;2023-04-03T00:40:38;1.60;1.00
54178;DHT22;40085;53.004;6.770;2023-04-03T00:43:21;1.60;1.00
54178;DHT22;40085;53.004;6.770;2023-04-03T00:45:48;1.60;1.00
54178;DHT22;40085;53.004;6.770;2023-04-03T00:48:31;1.60;1.00
54178;DHT22;40085;53.004;6.770;2023-04-03T00:50:59;1.50;1.00
54178;DHT22;40085;53.004;6.770;2023-04-03T00:53:35;1.40;1.00
54178;DHT22;40085;53.004;6.770;2023-04-03T00:56:06;1.50;1.00
54178;DHT22;40085;53.004;6.770;2023-04-03T00:58:41;1.40;1.00
54178;DHT22;40085;53.004;6.770;2023-04-03T01:01:11;1.40;1.00
54178;DHT22;40085;53.004;6.770;2023-04-03T01:03:37;1.40;1.00
54178;DHT22;40085;53.004;6.770;2023-04-03T01:06:03;1.30;1.00
54178;DHT22;40085;53.004;6.770;2023-04-03T01:08:30;1.30;1.00
54178;DHT22;40085;53.004;6.770;2023-04-03T01:10:56;1.30;1.00
54178;DHT22;40085;53.004;6.770;2023-04-03T01:13:28;1.30;1.00
54178;DHT22;40085;53.004;6.770;2023-04-03T01:15:54;1.30;1.00
54178;DHT22;40085;53.004;6.770;2023-04-03T01:18:22;1.30;1.00
54178;DHT22;40085;53.004;6.770;2023-04-03T01:23:30;1.30;1.00
54178;DHT22;40085;53.004;6.770;2023-04-03T01:25:58;1.30;1.00
54178;DHT22;40085;53.004;6.770;2023-04-03T01:28:29;1.20;1.00
54178;DHT22;40085;53.004;6.770;2023-04-03T01:33:41;1.20;1.00
54178;DHT22;40085;53.004;6.770;2023-04-03T01:36:13;1.20;1.00
54178;DHT22;40085;53.004;6.770;2023-04-03T01:38:39;1.20;1.00
54178;DHT22;40085;53.004;6.770;2023-04-03T01:41:04;1.20;1.00
54178;DHT22;40085;53.004;6.770;2023-04-03T01:43:30;1.20;1.00
54178;DHT22;40085;53.004;6.770;2023-04-03T01:45:55;1.20;1.00
54178;DHT22;40085;53.004;6.770;2023-04-03T01:48:21;1.10;1.00
54178;DHT22;40085;53.004;6.770;2023-04-03T01:50:47;1.20;1.00
54178;DHT22;40085;53.004;6.770;2023-04-03T01:53:13;1.20;1.00
54178;DHT22;40085;53.004;6.770;2023-04-03T01:55:38;1.50;1.00
54178;DHT22;40085;53.004;6.770;2023-04-03T01:58:04;1.10;1.00
54178;DHT22;40085;53.004;6.770;2023-04-03T02:00:30;1.10;1.00
54178;DHT22;40085;53.004;6.770;2023-04-03T02:02:56;1.10;1.00
54178;DHT22;40085;53.004;6.770;2023-04-03T02:05:22;1.10;1.00
54178;DHT22;40085;53.004;6.770;2023-04-03T02:07:48;1.10;1.00
54178;DHT22;40085;53.004;6.770;2023-04-03T02:10:14;1.10;1.00
54178;DHT22;40085;53.004;6.770;2023-04-03T02:12:40;1.10;1.00
54178;DHT22;40085;53.004;6.770;2023-04-03T02:15:06;1.00;1.00
54178;DHT22;40085;53.004;6.770;2023-04-03T02:17:32;1.00;1.00
54178;DHT22;40085;53.004;6.770;2023-04-03T02:19:58;1.20;1.00
54178;DHT22;40085;53.004;6.770;2023-04-03T02:22:23;1.00;1.00
54178;DHT22;40085;53.004;6.770;2023-04-03T02:24:49;1.00;1.00
54178;DHT22;40085;53.004;6.770;2023-04-03T02:27:15;1.00;1.00
54178;DHT22;40085;53.004;6.770;2023-04-03T02:29:41;1.00;1.00
54178;DHT22;40085;53.004;6.770;2023-04-03T02:32:06;0.90;1.00
54178;DHT22;40085;53.004;6.770;2023-04-03T02:34:32;0.90;1.00
54178;DHT22;40085;53.004;6.770;2023-04-03T02:36:58;0.80;1.00
54178;DHT22;40085;53.004;6.770;2023-04-03T02:39:23;0.80;1.00
54178;DHT22;40085;53.004;6.770;2023-04-03T02:41:49;0.80;1.00
54178;DHT22;40085;53.004;6.770;2023-04-03T02:44:14;0.80;13.80
54178;DHT22;40085;53.004;6.770;2023-04-03T02:46:40;0.70;26.10
54178;DHT22;40085;53.004;6.770;2023-04-03T02:49:06;0.70;17.00
54178;DHT22;40085;53.004;6.770;2023-04-03T02:51:32;0.70;15.60
54178;DHT22;40085;53.004;6.770;2023-04-03T02:53:57;0.70;5.10
54178;DHT22;40085;53.004;6.770;2023-04-03T02:56:23;0.60;12.20
54178;DHT22;40085;53.004;6.770;2023-04-03T02:58:49;0.60;12.40
54178;DHT22;40085;53.004;6.770;2023-04-03T03:01:15;0.60;14.40
54178;DHT22;40085;53.004;6.770;2023-04-03T03:03:40;0.50;18.90
54178;DHT22;40085;53.004;6.770;2023-04-03T03:06:16;0.50;16.10
54178;DHT22;40085;53.004;6.770;2023-04-03T03:08:42;0.40;13.00
54178;DHT22;40085;53.004;6.770;2023-04-03T03:11:09;0.40;17.80
54178;DHT22;40085;53.004;6.770;2023-04-03T03:13:35;0.80;28.50
54178;DHT22;40085;53.004;6.770;2023-04-03T03:16:01;0.30;32.90
54178;DHT22;40085;53.004;6.770;2023-04-03T03:18:27;1.30;28.30
54178;DHT22;40085;53.004;6.770;2023-04-03T03:20:54;0.30;27.30
54178;DHT22;40085;53.004;6.770;2023-04-03T03:23:22;0.20;37.40
54178;DHT22;40085;53.004;6.770;2023-04-03T03:25:48;0.20;31.60
54178;DHT22;40085;53.004;6.770;2023-04-03T03:28:13;0.20;30.10
54178;DHT22;40085;53.004;6.770;2023-04-03T03:30:39;0.20;35.50
54178;DHT22;40085;53.004;6.770;2023-04-03T03:33:05;0.10;40.60
54178;DHT22;40085;53.004;6.770;2023-04-03T03:35:30;0.10;42.30
54178;DHT22;40085;53.004;6.770;2023-04-03T03:37:56;0.20;46.00
54178;DHT22;40085;53.004;6.770;2023-04-03T03:40:22;0.10;44.80
54178;DHT22;40085;53.004;6.770;2023-04-03T03:42:47;0.10;48.50
54178;DHT22;40085;53.004;6.770;2023-04-03T03:45:13;0.10;48.50
54178;DHT22;40085;53.004;6.770;2023-04-03T03:47:38;0.00;47.40
54178;DHT22;40085;53.004;6.770;2023-04-03T03:50:06;0.00;47.20
54178;DHT22;40085;53.004;6.770;2023-04-03T03:52:31;0.10;49.60
54178;DHT22;40085;53.004;6.770;2023-04-03T03:54:57;0.10;50.60
54178;DHT22;40085;53.004;6.770;2023-04-03T03:57:23;0.00;49.50
54178;DHT22;40085;53.004;6.770;2023-04-03T03:59:48;0.00;48.20
54178;DHT22;40085;53.004;6.770;2023-04-03T04:02:14;0.00;51.60
54178;DHT22;40085;53.004;6.770;2023-04-03T04:04:40;0.00;54.50
54178;DHT22;40085;53.004;6.770;2023-04-03T04:07:06;-0.10;56.70
54178;DHT22;40085;53.004;6.770;2023-04-03T04:09:31;-0.10;61.20
54178;DHT22;40085;53.004;6.770;2023-04-03T04:11:57;-0.10;59.10
54178;DHT22;40085;53.004;6.770;2023-04-03T04:14:23;-0.10;60.90
54178;DHT22;40085;53.004;6.770;2023-04-03T04:16:49;-0.10;61.90
54178;DHT22;40085;53.004;6.770;2023-04-03T04:19:14;-0.10;64.00
54178;DHT22;40085;53.004;6.770;2023-04-03T04:21:40;-0.10;63.20
54178;DHT22;40085;53.004;6.770;2023-04-03T04:24:07;-0.10;63.90
54178;DHT22;40085;53.004;6.770;2023-04-03T04:26:33;-0.10;64.20
54178;DHT22;40085;53.004;6.770;2023-04-03T04:28:58;-0.10;64.20
54178;DHT22;40085;53.004;6.770;2023-04-03T04:31:24;-0.20;63.50
54178;DHT22;40085;53.004;6.770;2023-04-03T04:33:50;-0.20;68.60
54178;DHT22;40085;53.004;6.770;2023-04-03T04:36:15;-0.20;64.70
54178;DHT22;40085;53.004;6.770;2023-04-03T04:38:41;-0.20;64.70
54178;DHT22;40085;53.004;6.770;2023-04-03T04:41:07;-0.20;65.80
54178;DHT22;40085;53.004;6.770;2023-04-03T04:43:33;-0.20;65.70
54178;DHT22;40085;53.004;6.770;2023-04-03T04:46:07;-0.20;65.60
54178;DHT22;40085;53.004;6.770;2023-04-03T04:48:34;0.70;69.30
54178;DHT22;40085;53.004;6.770;2023-04-03T04:51:00;-0.30;69.00
54178;DHT22;40085;53.004;6.770;2023-04-03T04:53:25;-0.20;66.40
54178;DHT22;40085;53.004;6.770;2023-04-03T04:55:52;-0.20;67.80
54178;DHT22;40085;53.004;6.770;2023-04-03T04:58:17;-0.30;72.20
54178;DHT22;40085;53.004;6.770;2023-04-03T05:00:43;-0.30;73.20
54178;DHT22;40085;53.004;6.770;2023-04-03T05:03:09;-0.20;73.40
54178;DHT22;40085;53.004;6.770;2023-04-03T05:05:35;-0.30;72.40
54178;DHT22;40085;53.004;6.770;2023-04-03T05:08:01;-0.20;72.40
54178;DHT22;40085;53.004;6.770;2023-04-03T05:10:27;-0.20;71.20
54178;DHT22;40085;53.004;6.770;2023-04-03T05:12:53;-0.20;72.60
54178;DHT22;40085;53.004;6.770;2023-04-03T05:15:19;-0.20;72.50
54178;DHT22;40085;53.004;6.770;2023-04-03T05:17:45;-0.20;72.60
54178;DHT22;40085;53.004;6.770;2023-04-03T05:20:11;-0.20;73.30
54178;DHT22;40085;53.004;6.770;2023-04-03T05:22:37;-0.20;74.60
54178;DHT22;40085;53.004;6.770;2023-04-03T05:25:03;-0.20;75.30
54178;DHT22;40085;53.004;6.770;2023-04-03T05:27:29;-0.20;74.30
54178;DHT22;40085;53.004;6.770;2023-04-03T05:29:55;-0.10;77.00
54178;DHT22;40085;53.004;6.770;2023-04-03T05:32:24;-0.10;78.00
54178;DHT22;40085;53.004;6.770;2023-04-03T05:34:52;0.00;75.00
54178;DHT22;40085;53.004;6.770;2023-04-03T05:37:17;0.00;77.60
54178;DHT22;40085;53.004;6.770;2023-04-03T05:39:43;0.00;77.30
54178;DHT22;40085;53.004;6.770;2023-04-03T05:42:09;0.10;75.20
54178;DHT22;40085;53.004;6.770;2023-04-03T05:44:34;0.20;75.60
54178;DHT22;40085;53.004;6.770;2023-04-03T05:47:00;0.20;75.60
54178;DHT22;40085;53.004;6.770;2023-04-03T05:49:26;0.20;75.00
54178;DHT22;40085;53.004;6.770;2023-04-03T05:51:52;0.30;73.60
54178;DHT22;40085;53.004;6.770;2023-04-03T05:54:21;0.40;73.80
54178;DHT22;40085;53.004;6.770;2023-04-03T05:56:49;0.40;73.30
54178;DHT22;40085;53.004;6.770;2023-04-03T05:59:15;0.50;71.40
54178;DHT22;40085;53.004;6.770;2023-04-03T06:01:40;0.50;71.80
54178;DHT22;40085;53.004;6.770;2023-04-03T06:04:06;0.60;72.10
54178;DHT22;40085;53.004;6.770;2023-04-03T06:06:48;0.70;71.70
54178;DHT22;40085;53.004;6.770;2023-04-03T06:09:15;0.80;68.60
54178;DHT22;40085;53.004;6.770;2023-04-03T06:11:42;2.60;66.90
54178;DHT22;40085;53.004;6.770;2023-04-03T06:14:08;0.90;65.50
54178;DHT22;40085;53.004;6.770;2023-04-03T06:16:34;1.00;63.60
54178;DHT22;40085;53.004;6.770;2023-04-03T06:18:59;1.00;59.00
54178;DHT22;40085;53.004;6.770;2023-04-03T06:21:26;1.10;59.60
54178;DHT22;40085;53.004;6.770;2023-04-03T06:23:51;1.20;56.90
54178;DHT22;40085;53.004;6.770;2023-04-03T06:26:17;1.30;54.60
54178;DHT22;40085;53.004;6.770;2023-04-03T06:28:43;1.40;49.40
54178;DHT22;40085;53.004;6.770;2023-04-03T06:31:08;1.40;44.00
54178;DHT22;40085;53.004;6.770;2023-04-03T06:33:34;1.50;40.70
54178;DHT22;40085;53.004;6.770;2023-04-03T06:36:04;1.60;40.70
54178;DHT22;40085;53.004;6.770;2023-04-03T06:38:29;1.70;39.80
54178;DHT22;40085;53.004;6.770;2023-04-03T06:40:55;1.80;36.80
54178;DHT22;40085;53.004;6.770;2023-04-03T06:43:21;1.90;33.30
54178;DHT22;40085;53.004;6.770;2023-04-03T06:45:47;2.00;27.90
54178;DHT22;40085;53.004;6.770;2023-04-03T06:48:13;2.10;22.90
54178;DHT22;40085;53.004;6.770;2023-04-03T06:50:39;2.20;21.70
54178;DHT22;40085;53.004;6.770;2023-04-03T06:53:05;2.40;24.50
54178;DHT22;40085;53.004;6.770;2023-04-03T06:55:31;2.40;12.10
54178;DHT22;40085;53.004;6.770;2023-04-03T06:57:57;2.60;2.50
54178;DHT22;40085;53.004;6.770;2023-04-03T07:00:22;2.60;6.20
54178;DHT22;40085;53.004;6.770;2023-04-03T07:02:48;2.80;1.60
54178;DHT22;40085;53.004;6.770;2023-04-03T07:05:14;2.90;1.00
54178;DHT22;40085;53.004;6.770;2023-04-03T07:07:39;3.00;1.00
54178;DHT22;40085;53.004;6.770;2023-04-03T07:10:07;3.20;1.00
54178;DHT22;40085;53.004;6.770;2023-04-03T07:12:33;3.30;1.00
54178;DHT22;40085;53.004;6.770;2023-04-03T07:14:59;3.30;1.00
54178;DHT22;40085;53.004;6.770;2023-04-03T07:17:24;3.50;1.00
54178;DHT22;40085;53.004;6.770;2023-04-03T07:19:51;3.60;1.00
54178;DHT22;40085;53.004;6.770;2023-04-03T07:22:17;3.60;1.00
54178;DHT22;40085;53.004;6.770;2023-04-03T07:24:43;3.80;1.00
54178;DHT22;40085;53.004;6.770;2023-04-03T07:27:09;3.90;1.00
54178;DHT22;40085;53.004;6.770;2023-04-03T07:29:35;4.10;1.00
54178;DHT22;40085;53.004;6.770;2023-04-03T07:32:02;4.20;1.00
54178;DHT22;40085;53.004;6.770;2023-04-03T07:34:28;4.30;99.90
54178;DHT22;40085;53.004;6.770;2023-04-03T07:36:54;4.30;99.90
54178;DHT22;40085;53.004;6.770;2023-04-03T07:39:20;4.40;99.90
54178;DHT22;40085;53.004;6.770;2023-04-03T07:41:45;4.50;99.90
54178;DHT22;40085;53.004;6.770;2023-04-03T07:44:11;4.60;99.90
54178;DHT22;40085;53.004;6.770;2023-04-03T07:46:37;4.70;99.90
54178;DHT22;40085;53.004;6.770;2023-04-03T07:49:03;4.80;99.90
54178;DHT22;40085;53.004;6.770;2023-04-03T07:51:29;4.90;1.00
54178;DHT22;40085;53.004;6.770;2023-04-03T07:53:55;5.00;1.00
54178;DHT22;40085;53.004;6.770;2023-04-03T07:56:21;5.20;99.90
54178;DHT22;40085;53.004;6.770;2023-04-03T07:58:47;5.30;24.70
54178;DHT22;40085;53.004;6.770;2023-04-03T08:01:12;5.40;99.90
54178;DHT22;40085;53.004;6.770;2023-04-03T08:03:39;5.30;10.60
54178;DHT22;40085;53.004;6.770;2023-04-03T08:06:06;5.30;99.90
54178;DHT22;40085;53.004;6.770;2023-04-03T08:08:33;5.50;1.00
54178;DHT22;40085;53.004;6.770;2023-04-03T08:11:00;5.60;99.90
54178;DHT22;40085;53.004;6.770;2023-04-03T08:13:27;5.50;99.90
54178;DHT22;40085;53.004;6.770;2023-04-03T08:15:53;5.70;99.90
54178;DHT22;40085;53.004;6.770;2023-04-03T08:18:19;5.60;99.90
54178;DHT22;40085;53.004;6.770;2023-04-03T08:20:47;6.40;1.00
54178;DHT22;40085;53.004;6.770;2023-04-03T08:23:12;5.70;99.90
54178;DHT22;40085;53.004;6.770;2023-04-03T08:25:43;5.70;44.50
54178;DHT22;40085;53.004;6.770;2023-04-03T08:28:10;3.70;99.90
54178;DHT22;40085;53.004;6.770;2023-04-03T08:30:39;6.00;1.00
54178;DHT22;40085;53.004;6.770;2023-04-03T08:33:06;6.00;1.00
54178;DHT22;40085;53.004;6.770;2023-04-03T08:35:31;6.00;1.00
54178;DHT22;40085;53.004;6.770;2023-04-03T08:37:57;6.00;99.90
54178;DHT22;40085;53.004;6.770;2023-04-03T08:40:23;6.00;1.00
54178;DHT22;40085;53.004;6.770;2023-04-03T08:45:44;6.30;1.00
54178;DHT22;40085;53.004;6.770;2023-04-03T08:48:21;6.40;1.00
54178;DHT22;40085;53.004;6.770;2023-04-03T08:50:53;6.40;99.90
54178;DHT22;40085;53.004;6.770;2023-04-03T08:53:22;6.60;99.90
54178;DHT22;40085;53.004;6.770;2023-04-03T08:55:51;6.60;99.90
54178;DHT22;40085;53.004;6.770;2023-04-03T08:58:21;6.40;99.90
54178;DHT22;40085;53.004;6.770;2023-04-03T09:03:23;6.50;99.90
54178;DHT22;40085;53.004;6.770;2023-04-03T09:08:29;6.90;99.90
54178;DHT22;40085;53.004;6.770;2023-04-03T09:14:02;6.80;97.60
54178;DHT22;40085;53.004;6.770;2023-04-03T09:17:04;6.90;80.40
54178;DHT22;40085;53.004;6.770;2023-04-03T09:19:39;7.00;73.40
54178;DHT22;40085;53.004;6.770;2023-04-03T09:24:44;7.20;1.00
54178;DHT22;40085;53.004;6.770;2023-04-03T09:27:11;7.20;51.80
54178;DHT22;40085;53.004;6.770;2023-04-03T09:29:40;7.40;53.90
54178;DHT22;40085;53.004;6.770;2023-04-03T09:32:30;7.50;62.40
54178;DHT22;40085;53.004;6.770;2023-04-03T09:35:42;7.60;33.90
54178;DHT22;40085;53.004;6.770;2023-04-03T09:37:49;7.70;4.80
54178;DHT22;40085;53.004;6.770;2023-04-03T09:42:52;8.00;21.50
54178;DHT22;40085;53.004;6.770;2023-04-03T09:45:28;8.60;24.20
54178;DHT22;40085;53.004;6.770;2023-04-03T09:50:35;8.00;1.00
54178;DHT22;40085;53.004;6.770;2023-04-03T09:53:12;8.00;1.00
54178;DHT22;40085;53.004;6.770;2023-04-03T09:55:49;8.20;1.00
54178;DHT22;40085;53.004;6.770;2023-04-03T09:58:38;8.00;99.90
54178;DHT22;40085;53.004;6.770;2023-04-03T10:01:06;8.10;99.90
54178;DHT22;40085;53.004;6.770;2023-04-03T10:03:45;8.30;99.90
54178;DHT22;40085;53.004;6.770;2023-04-03T10:06:24;8.20;99.90
54178;DHT22;40085;53.004;6.770;2023-04-03T10:09:01;9.10;99.90
54178;DHT22;40085;53.004;6.770;2023-04-03T10:11:30;8.60;99.90
54178;DHT22;40085;53.004;6.770;2023-04-03T10:13:58;8.40;99.90
54178;DHT22;40085;53.004;6.770;2023-04-03T10:16:44;8.80;99.90
54178;DHT22;40085;53.004;6.770;2023-04-03T10:21:59;9.00;99.90
54178;DHT22;40085;53.004;6.770;2023-04-03T10:24:48;8.90;99.90
54178;DHT22;40085;53.004;6.770;2023-04-03T10:27:41;8.80;99.90
54178;DHT22;40085;53.004;6.770;2023-04-03T10:32:51;8.90;99.90
54178;DHT22;40085;53.004;6.770;2023-04-03T10:35:26;8.90;99.90
54178;DHT22;40085;53.004;6.770;2023-04-03T10:41:20;9.00;99.90
54178;DHT22;40085;53.004;6.770;2023-04-03T10:44:15;9.30;99.90
54178;DHT22;40085;53.004;6.770;2023-04-03T10:46:51;9.10;99.90
54178;DHT22;40085;53.004;6.770;2023-04-03T10:49:45;9.00;99.90
54178;DHT22;40085;53.004;6.770;2023-04-03T10:57:40;9.60;99.90
54178;DHT22;40085;53.004;6.770;2023-04-03T11:02:55;9.90;99.90
54178;DHT22;40085;53.004;6.770;2023-04-03T11:05:31;9.60;99.90
54178;DHT22;40085;53.004;6.770;2023-04-03T11:08:04;9.70;99.90
54178;DHT22;40085;53.004;6.770;2023-04-03T11:10:44;9.70;99.90
54178;DHT22;40085;53.004;6.770;2023-04-03T11:13:38;9.90;99.90
54178;DHT22;40085;53.004;6.770;2023-04-03T11:16:06;10.00;99.90
54178;DHT22;40085;53.004;6.770;2023-04-03T11:18:39;10.10;99.90
54178;DHT22;40085;53.004;6.770;2023-04-03T11:21:31;9.90;99.90
54178;DHT22;40085;53.004;6.770;2023-04-03T11:24:02;10.20;99.90
54178;DHT22;40085;53.004;6.770;2023-04-03T11:26:31;10.20;99.90
54178;DHT22;40085;53.004;6.770;2023-04-03T11:29:09;11.30;99.90
54178;DHT22;40085;53.004;6.770;2023-04-03T11:34:34;10.50;99.90
54178;DHT22;40085;53.004;6.770;2023-04-03T11:37:10;10.70;99.90
54178;DHT22;40085;53.004;6.770;2023-04-03T11:39:38;11.40;99.90
54178;DHT22;40085;53.004;6.770;2023-04-03T11:42:37;10.70;99.90
54178;DHT22;40085;53.004;6.770;2023-04-03T11:47:50;10.70;99.90
54178;DHT22;40085;53.004;6.770;2023-04-03T12:08:28;11.90;99.90
54178;DHT22;40085;53.004;6.770;2023-04-03T12:19:31;12.00;1.00
54178;DHT22;40085;53.004;6.770;2023-04-03T12:37:19;11.90;99.90
54178;DHT22;40085;53.004;6.770;2023-04-03T12:40:26;13.10;1.00
54178;DHT22;40085;53.004;6.770;2023-04-03T12:43:09;12.50;1.00
54178;DHT22;40085;53.004;6.770;2023-04-03T12:45:59;12.40;1.00
54178;DHT22;40085;53.004;6.770;2023-04-03T12:48:29;12.50;99.90
54178;DHT22;40085;53.004;6.770;2023-04-03T12:50:56;13.20;99.90
54178;DHT22;40085;53.004;6.770;2023-04-03T12:53:28;12.50;99.90
54178;DHT22;40085;53.004;6.770;2023-04-03T12:56:29;12.80;99.90
54178;DHT22;40085;53.004;6.770;2023-04-03T13:01:42;12.50;99.90
54178;DHT22;40085;53.004;6.770;2023-04-03T13:04:10;12.30;99.90
54178;DHT22;40085;53.004;6.770;2023-04-03T13:06:42;12.40;99.90
54178;DHT22;40085;53.004;6.770;2023-04-03T13:09:26;12.30;99.90
54178;DHT22;40085;53.004;6.770;2023-04-03T13:12:14;12.40;99.90
54178;DHT22;40085;53.004;6.770;2023-04-03T13:14:50;12.40;99.90
54178;DHT22;40085;53.004;6.770;2023-04-03T13:17:16;12.30;99.90
54178;DHT22;40085;53.004;6.770;2023-04-03T13:19:44;12.40;99.90
54178;DHT22;40085;53.004;6.770;2023-04-03T13:22:33;12.30;99.90
54178;DHT22;40085;53.004;6.770;2023-04-03T13:25:07;12.40;99.90
54178;DHT22;40085;53.004;6.770;2023-04-03T13:27:34;12.60;99.90
54178;DHT22;40085;53.004;6.770;2023-04-03T13:30:02;12.50;99.90
54178;DHT22;40085;53.004;6.770;2023-04-03T13:32:30;12.40;99.90
54178;DHT22;40085;53.004;6.770;2023-04-03T13:34:56;12.40;99.90
54178;DHT22;40085;53.004;6.770;2023-04-03T13:42:35;12.70;99.90
54178;DHT22;40085;53.004;6.770;2023-04-03T14:05:52;12.40;99.90
54178;DHT22;40085;53.004;6.770;2023-04-03T14:08:19;12.40;99.90
54178;DHT22;40085;53.004;6.770;2023-04-03T14:10:45;12.40;99.90
54178;DHT22;40085;53.004;6.770;2023-04-03T14:13:17;13.10;99.90
54178;DHT22;40085;53.004;6.770;2023-04-03T14:15:44;12.20;99.90
54178;DHT22;40085;53.004;6.770;2023-04-03T14:18:14;12.00;99.90
54178;DHT22;40085;53.004;6.770;2023-04-03T14:20:40;12.00;99.90
54178;DHT22;40085;53.004;6.770;2023-04-03T14:23:06;12.10;99.90
54178;DHT22;40085;53.004;6.770;2023-04-03T14:25:32;12.20;99.90
54178;DHT22;40085;53.004;6.770;2023-04-03T14:27:58;13.20;99.90
54178;DHT22;40085;53.004;6.770;2023-04-03T14:30:28;12.80;99.90
54178;DHT22;40085;53.004;6.770;2023-04-03T14:32:54;13.10;99.90
54178;DHT22;40085;53.004;6.770;2023-04-03T14:47:44;13.10;99.90
54178;DHT22;40085;53.004;6.770;2023-04-03T14:50:15;12.80;99.90
54178;DHT22;40085;53.004;6.770;2023-04-03T14:52:41;13.10;99.90
54178;DHT22;40085;53.004;6.770;2023-04-03T14:55:07;13.50;99.90
54178;DHT22;40085;53.004;6.770;2023-04-03T14:57:33;13.80;99.90
54178;DHT22;40085;53.004;6.770;2023-04-03T15:05:03;15.90;99.90
54178;DHT22;40085;53.004;6.770;2023-04-03T15:07:31;16.50;99.90
54178;DHT22;40085;53.004;6.770;2023-04-03T15:10:00;16.30;99.90
54178;DHT22;40085;53.004;6.770;2023-04-03T15:12:27;16.90;99.90
54178;DHT22;40085;53.004;6.770;2023-04-03T15:14:52;17.70;99.90
54178;DHT22;40085;53.004;6.770;2023-04-03T15:19:47;17.10;1.00
54178;DHT22;40085;53.004;6.770;2023-04-03T15:22:14;17.70;99.90
54178;DHT22;40085;53.004;6.770;2023-04-03T15:24:41;17.20;99.90
54178;DHT22;40085;53.004;6.770;2023-04-03T15:27:08;17.00;99.90
54178;DHT22;40085;53.004;6.770;2023-04-03T15:29:33;17.40;99.90
54178;DHT22;40085;53.004;6.770;2023-04-03T15:31:59;16.80;99.90
54178;DHT22;40085;53.004;6.770;2023-04-03T15:34:25;16.60;1.00
54178;DHT22;40085;53.004;6.770;2023-04-03T15:36:50;16.20;99.90
54178;DHT22;40085;53.004;6.770;2023-04-03T15:39:19;15.80;99.90
54178;DHT22;40085;53.004;6.770;2023-04-03T15:41:46;15.60;99.90
54178;DHT22;40085;53.004;6.770;2023-04-03T15:44:11;15.40;99.90
54178;DHT22;40085;53.004;6.770;2023-04-03T15:46:38;14.50;99.90
54178;DHT22;40085;53.004;6.770;2023-04-03T15:49:04;14.10;99.90
54178;DHT22;40085;53.004;6.770;2023-04-03T15:51:31;13.80;99.90
54178;DHT22;40085;53.004;6.770;2023-04-03T15:53:57;14.00;99.90
54178;DHT22;40085;53.004;6.770;2023-04-03T15:56:22;13.60;99.90
54178;DHT22;40085;53.004;6.770;2023-04-03T15:58:48;13.90;99.90
54178;DHT22;40085;53.004;6.770;2023-04-03T16:01:14;13.80;99.90
54178;DHT22;40085;53.004;6.770;2023-04-03T16:03:41;14.30;99.90
54178;DHT22;40085;53.004;6.770;2023-04-03T16:06:12;14.40;99.90
54178;DHT22;40085;53.004;6.770;2023-04-03T16:08:37;15.20;93.10
54178;DHT22;40085;53.004;6.770;2023-04-03T16:11:03;14.90;9.80
54178;DHT22;40085;53.004;6.770;2023-04-03T16:13:29;15.00;99.90
54178;DHT22;40085;53.004;6.770;2023-04-03T16:15:55;15.30;99.90
54178;DHT22;40085;53.004;6.770;2023-04-03T16:18:21;15.20;99.90
54178;DHT22;40085;53.004;6.770;2023-04-03T16:20:46;15.60;99.90
54178;DHT22;40085;53.004;6.770;2023-04-03T16:23:12;16.60;99.90
54178;DHT22;40085;53.004;6.770;2023-04-03T16:25:38;15.90;99.90
54178;DHT22;40085;53.004;6.770;2023-04-03T16:28:04;15.80;99.90
54178;DHT22;40085;53.004;6.770;2023-04-03T16:30:29;16.20;90.50
54178;DHT22;40085;53.004;6.770;2023-04-03T16:32:56;15.80;1.00
54178;DHT22;40085;53.004;6.770;2023-04-03T16:35:22;15.90;1.00
54178;DHT22;40085;53.004;6.770;2023-04-03T16:37:48;15.50;1.00
54178;DHT22;40085;53.004;6.770;2023-04-03T16:40:13;14.60;99.90
54178;DHT22;40085;53.004;6.770;2023-04-03T16:42:39;13.80;99.90
54178;DHT22;40085;53.004;6.770;2023-04-03T16:45:06;14.30;99.90
54178;DHT22;40085;53.004;6.770;2023-04-03T16:47:34;13.00;99.90
54178;DHT22;40085;53.004;6.770;2023-04-03T16:50:00;12.80;1.00
54178;DHT22;40085;53.004;6.770;2023-04-03T16:52:26;12.80;99.90
54178;DHT22;40085;53.004;6.770;2023-04-03T16:54:52;12.20;1.00
54178;DHT22;40085;53.004;6.770;2023-04-03T16:57:22;12.20;99.90
54178;DHT22;40085;53.004;6.770;2023-04-03T17:04:42;12.30;99.90
54178;DHT22;40085;53.004;6.770;2023-04-03T17:09:34;11.40;1.00
54178;DHT22;40085;53.004;6.770;2023-04-03T17:12:00;11.90;99.90
54178;DHT22;40085;53.004;6.770;2023-04-03T17:14:25;11.00;99.90
54178;DHT22;40085;53.004;6.770;2023-04-03T17:16:51;11.10;99.90
54178;DHT22;40085;53.004;6.770;2023-04-03T17:19:17;11.40;99.90
54178;DHT22;40085;53.004;6.770;2023-04-03T17:21:44;10.80;96.60
54178;DHT22;40085;53.004;6.770;2023-04-03T17:26:41;10.10;99.90
54178;DHT22;40085;53.004;6.770;2023-04-03T17:29:07;9.80;99.90
54178;DHT22;40085;53.004;6.770;2023-04-03T17:31:33;9.50;99.90
54178;DHT22;40085;53.004;6.770;2023-04-03T17:33:59;9.40;99.90
54178;DHT22;40085;53.004;6.770;2023-04-03T17:36:28;9.20;99.90
54178;DHT22;40085;53.004;6.770;2023-04-03T17:38:54;9.00;99.90
54178;DHT22;40085;53.004;6.770;2023-04-03T17:41:19;8.80;99.90
54178;DHT22;40085;53.004;6.770;2023-04-03T17:43:45;8.50;99.90
54178;DHT22;40085;53.004;6.770;2023-04-03T17:46:10;8.40;99.90
54178;DHT22;40085;53.004;6.770;2023-04-03T17:48:38;7.90;99.90
54178;DHT22;40085;53.004;6.770;2023-04-03T17:51:09;8.20;99.90
54178;DHT22;40085;53.004;6.770;2023-04-03T17:53:35;7.90;99.90
54178;DHT22;40085;53.004;6.770;2023-04-03T17:56:12;7.80;99.90
54178;DHT22;40085;53.004;6.770;2023-04-03T17:58:38;7.70;99.90
54178;DHT22;40085;53.004;6.770;2023-04-03T18:01:13;7.50;99.90
54178;DHT22;40085;53.004;6.770;2023-04-03T18:03:39;7.50;99.90
54178;DHT22;40085;53.004;6.770;2023-04-03T18:06:07;7.30;99.90
54178;DHT22;40085;53.004;6.770;2023-04-03T18:08:41;7.20;99.90
54178;DHT22;40085;53.004;6.770;2023-04-03T18:11:07;7.10;99.90
54178;DHT22;40085;53.004;6.770;2023-04-03T18:13:33;6.90;99.90
54178;DHT22;40085;53.004;6.770;2023-04-03T18:16:03;6.80;99.90
54178;DHT22;40085;53.004;6.770;2023-04-03T18:18:29;6.80;99.90
54178;DHT22;40085;53.004;6.770;2023-04-03T18:20:55;6.70;99.90